sensor_id;sensor_type;location;lat;lon;timestamp;P1;durP1;ratioP1;P2;durP2;ratioP2
38220;SDS011;24023;51.280;7.148;2023-06-22T00:00:12;3.5;;;3.2;;
38220;SDS011;24023;51.280;7.148;2023-06-22T00:05:06;5.0;;;3.1;;
38220;SDS011;24023;51.280;7.148;2023-06-22T00:10:08;5.0;;;3.1;;
38220;SDS011;24023;51.280;7.148;2023-06-22T00:15:07;4.6;;;3.0;;
38220;SDS011;24023;51.280;7.148;2023-06-22T00:20:11;4.6;;;3.0;;
38220;SDS011;24023;51.280;7.148;2023-06-22T00:25:06;4.6;;;3.0;;
38220;SDS011;24023;51.280;7.148;2023-06-22T00:30:10;4.2;;;3.3;;
38220;SDS011;24023;51.280;7.148;2023-06-22T00:35:06;4.2;;;3.3;;
38220;SDS011;24023;51.280;7.148;2023-06-22T00:40:09;3.8;;;3.4;;
38220;SDS011;24023;51.280;7.148;2023-06-22T00:45:10;3.8;;;3.4;;
38220;SDS011;24023;51.280;7.148;2023-06-22T00:50:10;3.8;;;3.4;;
38220;SDS011;24023;51.280;7.148;2023-06-22T00:55:07;5.0;;;4.0;;
38220;SDS011;24023;51.280;7.148;2023-06-22T01:00:12;5.0;;;4.0;;
38220;SDS011;24023;51.280;7.148;2023-06-22T01:05:07;5.1;;;3.9;;
38220;SDS011;24023;51.280;7.148;2023-06-22T01:10:10;5.1;;;3.9;;
38220;SDS011;24023;51.280;7.148;2023-06-22T01:15:08;5.1;;;3.9;;
38220;SDS011;24023;51.280;7.148;2023-06-22T01:20:08;5.7;;;4.3;;
38220;SDS011;24023;51.280;7.148;2023-06-22T01:25:07;5.7;;;4.3;;
38220;SDS011;24023;51.280;7.148;2023-06-22T01:30:10;6.3;;;5.1;;
38220;SDS011;24023;51.280;7.148;2023-06-22T01:35:07;6.3;;;5.1;;
38220;SDS011;24023;51.280;7.148;2023-06-22T01:40:08;6.3;;;5.1;;
38220;SDS011;24023;51.280;7.148;2023-06-22T01:45:09;5.4;;;4.9;;
38220;SDS011;24023;51.280;7.148;2023-06-22T01:50:08;5.4;;;4.9;;
38220;SDS011;24023;51.280;7.148;2023-06-22T01:55:08;6.7;;;4.7;;
38220;SDS011;24023;51.280;7.148;2023-06-22T02:00:11;6.7;;;4.7;;
38220;SDS011;24023;51.280;7.148;2023-06-22T02:05:07;6.9;;;5.3;;
38220;SDS011;24023;51.280;7.148;2023-06-22T02:10:08;6.9;;;5.3;;
38220;SDS011;24023;51.280;7.148;2023-06-22T02:15:08;6.9;;;5.3;;
38220;SDS011;24023;51.280;7.148;2023-06-22T02:20:11;7.5;;;5.5;;
38220;SDS011;24023;51.280;7.148;2023-06-22T02:25:06;7.5;;;5.5;;
38220;SDS011;24023;51.280;7.148;2023-06-22T02:30:09;6.0;;;4.9;;
38220;SDS011;24023;51.280;7.148;2023-06-22T02:35:07;6.0;;;4.9;;
38220;SDS011;24023;51.280;7.148;2023-06-22T02:40:08;6.0;;;4.9;;
38220;SDS011;24023;51.280;7.148;2023-06-22T02:45:11;7.5;;;5.7;;
38220;SDS011;24023;51.280;7.148;2023-06-22T02:50:08;5.6;;;5.0;;
38220;SDS011;24023;51.280;7.148;2023-06-22T02:55:07;5.6;;;5.0;;
38220;SDS011;24023;51.280;7.148;2023-06-22T03:00:17;5.7;;;5.1;;
38220;SDS011;24023;51.280;7.148;2023-06-22T03:05:14;5.7;;;5.1;;
38220;SDS011;24023;51.280;7.148;2023-06-22T03:10:07;5.7;;;5.1;;
38220;SDS011;24023;51.280;7.148;2023-06-22T03:15:08;6.8;;;5.2;;
38220;SDS011;24023;51.280;7.148;2023-06-22T03:20:09;6.8;;;5.2;;
38220;SDS011;24023;51.280;7.148;2023-06-22T03:25:13;8.1;;;5.6;;
38220;SDS011;24023;51.280;7.148;2023-06-22T03:30:10;6.5;;;5.7;;
38220;SDS011;24023;51.280;7.148;2023-06-22T03:35:07;6.5;;;5.7;;
38220;SDS011;24023;51.280;7.148;2023-06-22T03:40:08;7.9;;;5.5;;
38220;SDS011;24023;51.280;7.148;2023-06-22T03:45:09;7.9;;;5.5;;
38220;SDS011;24023;51.280;7.148;2023-06-22T03:50:07;7.9;;;5.5;;
38220;SDS011;24023;51.280;7.148;2023-06-22T03:55:06;6.7;;;5.5;;
38220;SDS011;24023;51.280;7.148;2023-06-22T04:00:13;6.7;;;5.5;;
38220;SDS011;24023;51.280;7.148;2023-06-22T04:05:06;7.0;;;5.4;;
38220;SDS011;24023;51.280;7.148;2023-06-22T04:10:07;7.0;;;5.4;;
38220;SDS011;24023;51.280;7.148;2023-06-22T04:15:08;7.0;;;5.4;;
38220;SDS011;24023;51.280;7.148;2023-06-22T04:20:08;7.7;;;5.6;;
38220;SDS011;24023;51.280;7.148;2023-06-22T04:25:08;7.7;;;5.6;;
38220;SDS011;24023;51.280;7.148;2023-06-22T04:30:09;6.9;;;6.2;;
38220;SDS011;24023;51.280;7.148;2023-06-22T04:35:07;6.9;;;6.2;;
38220;SDS011;24023;51.280;7.148;2023-06-22T04:40:08;8.0;;;6.1;;
38220;SDS011;24023;51.280;7.148;2023-06-22T04:45:11;8.0;;;6.1;;
38220;SDS011;24023;51.280;7.148;2023-06-22T04:50:07;6.3;;;5.6;;
38220;SDS011;24023;51.280;7.148;2023-06-22T04:55:06;6.3;;;5.6;;
38220;SDS011;24023;51.280;7.148;2023-06-22T05:00:13;7.5;;;6.0;;
38220;SDS011;24023;51.280;7.148;2023-06-22T05:05:07;7.5;;;6.0;;
38220;SDS011;24023;51.280;7.148;2023-06-22T05:10:08;7.5;;;6.0;;
38220;SDS011;24023;51.280;7.148;2023-06-22T05:15:08;6.6;;;5.9;;
38220;SDS011;24023;51.280;7.148;2023-06-22T05:20:09;6.6;;;5.9;;
38220;SDS011;24023;51.280;7.148;2023-06-22T05:25:08;7.1;;;6.3;;
38220;SDS011;24023;51.280;7.148;2023-06-22T05:30:09;7.1;;;6.3;;
38220;SDS011;24023;51.280;7.148;2023-06-22T05:35:07;7.1;;;6.3;;
38220;SDS011;24023;51.280;7.148;2023-06-22T05:40:08;6.7;;;5.7;;
38220;SDS011;24023;51.280;7.148;2023-06-22T05:45:09;6.7;;;5.7;;
38220;SDS011;24023;51.280;7.148;2023-06-22T05:50:09;7.9;;;5.9;;
38220;SDS011;24023;51.280;7.148;2023-06-22T05:55:06;7.9;;;5.9;;
38220;SDS011;24023;51.280;7.148;2023-06-22T06:00:13;7.9;;;6.1;;
38220;SDS011;24023;51.280;7.148;2023-06-22T06:05:07;7.9;;;6.1;;
38220;SDS011;24023;51.280;7.148;2023-06-22T06:10:08;7.9;;;6.1;;
38220;SDS011;24023;51.280;7.148;2023-06-22T06:15:08;7.0;;;6.0;;
38220;SDS011;24023;51.280;7.148;2023-06-22T06:20:08;7.0;;;6.0;;
38220;SDS011;24023;51.280;7.148;2023-06-22T06:25:06;7.1;;;6.4;;
38220;SDS011;24023;51.280;7.148;2023-06-22T06:30:09;7.1;;;6.4;;
38220;SDS011;24023;51.280;7.148;2023-06-22T06:35:07;7.1;;;6.4;;
38220;SDS011;24023;51.280;7.148;2023-06-22T06:40:11;8.0;;;6.9;;
38220;SDS011;24023;51.280;7.148;2023-06-22T06:45:12;7.8;;;6.6;;
38220;SDS011;24023;51.280;7.148;2023-06-22T06:50:08;7.8;;;6.6;;
38220;SDS011;24023;51.280;7.148;2023-06-22T06:55:09;7.8;;;7.0;;
38220;SDS011;24023;51.280;7.148;2023-06-22T07:00:12;7.8;;;7.0;;
38220;SDS011;24023;51.280;7.148;2023-06-22T07:05:07;8.8;;;7.4;;
38220;SDS011;24023;51.280;7.148;2023-06-22T07:10:08;11.3;;;8.5;;
38220;SDS011;24023;51.280;7.148;2023-06-22T07:15:08;11.3;;;8.5;;
38220;SDS011;24023;51.280;7.148;2023-06-22T07:20:11;11.3;;;8.5;;
38220;SDS011;24023;51.280;7.148;2023-06-22T07:25:09;11.3;;;8.5;;
38220;SDS011;24023;51.280;7.148;2023-06-22T07:30:10;14.2;;;10.0;;
38220;SDS011;24023;51.280;7.148;2023-06-22T07:35:07;14.2;;;10.0;;
38220;SDS011;24023;51.280;7.148;2023-06-22T07:40:08;11.4;;;9.3;;
38220;SDS011;24023;51.280;7.148;2023-06-22T07:45:09;11.4;;;9.3;;
38220;SDS011;24023;51.280;7.148;2023-06-22T07:50:09;10.8;;;9.7;;
38220;SDS011;24023;51.280;7.148;2023-06-22T07:55:06;10.8;;;9.7;;
38220;SDS011;24023;51.280;7.148;2023-06-22T08:00:13;10.8;;;9.7;;
38220;SDS011;24023;51.280;7.148;2023-06-22T08:05:08;12.0;;;10.7;;
38220;SDS011;24023;51.280;7.148;2023-06-22T08:10:10;12.0;;;10.7;;
38220;SDS011;24023;51.280;7.148;2023-06-22T08:15:08;11.7;;;10.6;;
38220;SDS011;24023;51.280;7.148;2023-06-22T08:20:10;11.7;;;10.6;;
38220;SDS011;24023;51.280;7.148;2023-06-22T08:25:07;11.7;;;10.6;;
38220;SDS011;24023;51.280;7.148;2023-06-22T08:30:11;12.5;;;11.2;;
38220;SDS011;24023;51.280;7.148;2023-06-22T08:35:08;12.5;;;11.2;;
38220;SDS011;24023;51.280;7.148;2023-06-22T08:40:09;11.4;;;10.4;;
38220;SDS011;24023;51.280;7.148;2023-06-22T08:45:10;11.4;;;10.4;;
38220;SDS011;24023;51.280;7.148;2023-06-22T08:50:08;11.4;;;10.4;;
38220;SDS011;24023;51.280;7.148;2023-06-22T08:55:07;11.3;;;10.3;;
38220;SDS011;24023;51.280;7.148;2023-06-22T09:00:18;11.3;;;10.3;;
38220;SDS011;24023;51.280;7.148;2023-06-22T09:05:07;10.5;;;9.5;;
38220;SDS011;24023;51.280;7.148;2023-06-22T09:10:08;10.5;;;9.5;;
38220;SDS011;24023;51.280;7.148;2023-06-22T09:15:09;10.2;;;9.2;;
38220;SDS011;24023;51.280;7.148;2023-06-22T09:20:11;8.4;;;7.6;;
38220;SDS011;24023;51.280;7.148;2023-06-22T09:25:08;8.4;;;7.6;;
38220;SDS011;24023;51.280;7.148;2023-06-22T09:30:09;7.5;;;6.8;;
38220;SDS011;24023;51.280;7.148;2023-06-22T09:35:07;7.5;;;6.8;;
38220;SDS011;24023;51.280;7.148;2023-06-22T09:40:11;7.8;;;6.7;;
38220;SDS011;24023;51.280;7.148;2023-06-22T09:45:10;7.8;;;6.7;;
38220;SDS011;24023;51.280;7.148;2023-06-22T09:50:09;7.8;;;6.7;;
38220;SDS011;24023;51.280;7.148;2023-06-22T09:55:07;7.3;;;6.6;;
38220;SDS011;24023;51.280;7.148;2023-06-22T10:00:14;7.3;;;6.6;;
38220;SDS011;24023;51.280;7.148;2023-06-22T10:05:07;7.7;;;7.0;;
38220;SDS011;24023;51.280;7.148;2023-06-22T10:10:08;7.7;;;7.0;;
38220;SDS011;24023;51.280;7.148;2023-06-22T10:15:07;7.6;;;6.8;;
38220;SDS011;24023;51.280;7.148;2023-06-22T10:20:12;7.8;;;6.8;;
38220;SDS011;24023;51.280;7.148;2023-06-22T10:25:07;7.8;;;6.8;;
38220;SDS011;24023;51.280;7.148;2023-06-22T10:30:09;7.8;;;6.8;;
38220;SDS011;24023;51.280;7.148;2023-06-22T10:35:07;7.8;;;6.8;;
38220;SDS011;24023;51.280;7.148;2023-06-22T10:40:09;9.4;;;8.4;;
38220;SDS011;24023;51.280;7.148;2023-06-22T10:45:10;9.4;;;8.4;;
38220;SDS011;24023;51.280;7.148;2023-06-22T10:55:06;8.3;;;7.6;;
38220;SDS011;24023;51.280;7.148;2023-06-22T11:00:12;8.0;;;7.2;;
38220;SDS011;24023;51.280;7.148;2023-06-22T11:05:07;8.0;;;7.2;;
38220;SDS011;24023;51.280;7.148;2023-06-22T11:10:08;8.0;;;7.2;;
38220;SDS011;24023;51.280;7.148;2023-06-22T11:15:08;9.4;;;8.5;;
38220;SDS011;24023;51.280;7.148;2023-06-22T11:20:11;11.6;;;10.4;;
38220;SDS011;24023;51.280;7.148;2023-06-22T11:25:07;11.6;;;10.4;;
38220;SDS011;24023;51.280;7.148;2023-06-22T11:30:10;12.6;;;11.3;;
38220;SDS011;24023;51.280;7.148;2023-06-22T11:35:07;12.6;;;11.3;;
38220;SDS011;24023;51.280;7.148;2023-06-22T11:40:09;12.6;;;11.3;;
38220;SDS011;24023;51.280;7.148;2023-06-22T11:45:09;12.6;;;11.4;;
38220;SDS011;24023;51.280;7.148;2023-06-22T11:50:08;21.0;;;13.9;;
38220;SDS011;24023;51.280;7.148;2023-06-22T11:55:07;21.0;;;13.9;;
38220;SDS011;24023;51.280;7.148;2023-06-22T12:00:17;16.0;;;12.7;;
38220;SDS011;24023;51.280;7.148;2023-06-22T12:05:08;16.0;;;12.7;;
38220;SDS011;24023;51.280;7.148;2023-06-22T12:10:08;13.8;;;12.5;;
38220;SDS011;24023;51.280;7.148;2023-06-22T12:15:09;13.8;;;12.5;;
38220;SDS011;24023;51.280;7.148;2023-06-22T12:20:08;13.4;;;12.1;;
38220;SDS011;24023;51.280;7.148;2023-06-22T12:25:07;13.4;;;12.1;;
38220;SDS011;24023;51.280;7.148;2023-06-22T12:30:09;13.4;;;12.1;;
38220;SDS011;24023;51.280;7.148;2023-06-22T12:35:12;14.4;;;12.9;;
38220;SDS011;24023;51.280;7.148;2023-06-22T12:40:09;14.4;;;12.9;;
38220;SDS011;24023;51.280;7.148;2023-06-22T12:45:11;14.7;;;13.2;;
38220;SDS011;24023;51.280;7.148;2023-06-22T12:50:07;14.7;;;13.2;;
38220;SDS011;24023;51.280;7.148;2023-06-22T12:55:07;14.7;;;13.2;;
38220;SDS011;24023;51.280;7.148;2023-06-22T13:00:12;15.5;;;14.0;;
38220;SDS011;24023;51.280;7.148;2023-06-22T13:05:06;15.5;;;14.0;;
38220;SDS011;24023;51.280;7.148;2023-06-22T13:10:08;13.0;;;11.8;;
38220;SDS011;24023;51.280;7.148;2023-06-22T13:15:08;13.0;;;11.8;;
38220;SDS011;24023;51.280;7.148;2023-06-22T13:20:08;13.0;;;11.8;;
38220;SDS011;24023;51.280;7.148;2023-06-22T13:25:07;13.0;;;11.8;;
38220;SDS011;24023;51.280;7.148;2023-06-22T13:30:09;11.2;;;10.1;;
38220;SDS011;24023;51.280;7.148;2023-06-22T13:35:06;11.2;;;10.1;;
38220;SDS011;24023;51.280;7.148;2023-06-22T13:40:08;11.5;;;10.3;;
38220;SDS011;24023;51.280;7.148;2023-06-22T13:45:09;11.5;;;10.3;;
38220;SDS011;24023;51.280;7.148;2023-06-22T13:50:08;11.5;;;10.3;;
38220;SDS011;24023;51.280;7.148;2023-06-22T13:55:08;11.4;;;10.4;;
38220;SDS011;24023;51.280;7.148;2023-06-22T14:00:13;11.4;;;10.4;;
38220;SDS011;24023;51.280;7.148;2023-06-22T14:05:06;12.4;;;11.3;;
38220;SDS011;24023;51.280;7.148;2023-06-22T14:10:08;10.5;;;9.4;;
38220;SDS011;24023;51.280;7.148;2023-06-22T14:15:08;10.5;;;9.4;;
38220;SDS011;24023;51.280;7.148;2023-06-22T14:20:09;11.1;;;10.1;;
38220;SDS011;24023;51.280;7.148;2023-06-22T14:25:06;11.1;;;10.1;;
38220;SDS011;24023;51.280;7.148;2023-06-22T14:30:10;11.1;;;10.1;;
38220;SDS011;24023;51.280;7.148;2023-06-22T14:35:06;11.3;;;10.2;;
38220;SDS011;24023;51.280;7.148;2023-06-22T14:40:08;11.3;;;10.2;;
38220;SDS011;24023;51.280;7.148;2023-06-22T14:45:10;10.5;;;9.5;;
38220;SDS011;24023;51.280;7.148;2023-06-22T14:50:08;10.5;;;9.5;;
38220;SDS011;24023;51.280;7.148;2023-06-22T14:55:06;10.6;;;9.6;;
38220;SDS011;24023;51.280;7.148;2023-06-22T15:00:11;10.6;;;9.6;;
38220;SDS011;24023;51.280;7.148;2023-06-22T15:05:06;10.6;;;9.6;;
38220;SDS011;24023;51.280;7.148;2023-06-22T15:10:10;10.4;;;9.4;;
38220;SDS011;24023;51.280;7.148;2023-06-22T15:15:08;10.4;;;9.4;;
38220;SDS011;24023;51.280;7.148;2023-06-22T15:20:08;10.7;;;9.6;;
38220;SDS011;24023;51.280;7.148;2023-06-22T15:25:06;10.7;;;9.6;;
38220;SDS011;24023;51.280;7.148;2023-06-22T15:30:09;10.3;;;9.4;;
38220;SDS011;24023;51.280;7.148;2023-06-22T15:35:06;10.3;;;9.4;;
38220;SDS011;24023;51.280;7.148;2023-06-22T15:40:08;13.2;;;11.9;;
38220;SDS011;24023;51.280;7.148;2023-06-22T15:45:09;13.2;;;11.9;;
38220;SDS011;24023;51.280;7.148;2023-06-22T15:50:08;14.7;;;13.2;;
38220;SDS011;24023;51.280;7.148;2023-06-22T15:55:09;14.7;;;13.2;;
38220;SDS011;24023;51.280;7.148;2023-06-22T16:00:14;14.7;;;13.2;;
38220;SDS011;24023;51.280;7.148;2023-06-22T16:05:07;14.4;;;12.9;;
38220;SDS011;24023;51.280;7.148;2023-06-22T16:10:08;14.4;;;12.9;;
38220;SDS011;24023;51.280;7.148;2023-06-22T16:15:08;15.4;;;13.9;;
38220;SDS011;24023;51.280;7.148;2023-06-22T16:20:08;15.4;;;13.9;;
38220;SDS011;24023;51.280;7.148;2023-06-22T16:25:06;15.4;;;13.9;;
38220;SDS011;24023;51.280;7.148;2023-06-22T16:30:09;13.3;;;12.0;;
38220;SDS011;24023;51.280;7.148;2023-06-22T16:35:07;13.3;;;12.0;;
38220;SDS011;24023;51.280;7.148;2023-06-22T16:40:09;13.2;;;12.0;;
38220;SDS011;24023;51.280;7.148;2023-06-22T16:45:12;13.2;;;12.0;;
38220;SDS011;24023;51.280;7.148;2023-06-22T16:50:08;11.5;;;10.5;;
38220;SDS011;24023;51.280;7.148;2023-06-22T16:55:06;11.5;;;10.5;;
38220;SDS011;24023;51.280;7.148;2023-06-22T17:00:12;11.5;;;10.5;;
38220;SDS011;24023;51.280;7.148;2023-06-22T17:05:06;12.7;;;11.6;;
38220;SDS011;24023;51.280;7.148;2023-06-22T17:10:08;12.7;;;11.6;;
38220;SDS011;24023;51.280;7.148;2023-06-22T17:15:09;12.9;;;11.7;;
38220;SDS011;24023;51.280;7.148;2023-06-22T17:20:08;11.3;;;10.3;;
38220;SDS011;24023;51.280;7.148;2023-06-22T17:25:08;11.3;;;10.3;;
38220;SDS011;24023;51.280;7.148;2023-06-22T17:30:11;11.3;;;10.3;;
38220;SDS011;24023;51.280;7.148;2023-06-22T17:35:07;10.0;;;9.1;;
38220;SDS011;24023;51.280;7.148;2023-06-22T17:40:11;10.0;;;9.1;;
38220;SDS011;24023;51.280;7.148;2023-06-22T17:45:14;10.9;;;9.9;;
38220;SDS011;24023;51.280;7.148;2023-06-22T17:50:08;10.9;;;9.9;;
38220;SDS011;24023;51.280;7.148;2023-06-22T17:55:07;10.6;;;9.6;;
38220;SDS011;24023;51.280;7.148;2023-06-22T18:00:11;10.6;;;9.6;;
38220;SDS011;24023;51.280;7.148;2023-06-22T18:05:07;10.6;;;9.6;;
38220;SDS011;24023;51.280;7.148;2023-06-22T18:10:08;9.6;;;8.7;;
38220;SDS011;24023;51.280;7.148;2023-06-22T18:15:08;9.6;;;8.7;;
38220;SDS011;24023;51.280;7.148;2023-06-22T18:20:10;8.3;;;7.6;;
38220;SDS011;24023;51.280;7.148;2023-06-22T18:25:08;8.3;;;7.6;;
38220;SDS011;24023;51.280;7.148;2023-06-22T18:30:09;8.3;;;7.6;;
38220;SDS011;24023;51.280;7.148;2023-06-22T18:35:06;9.0;;;8.1;;
38220;SDS011;24023;51.280;7.148;2023-06-22T18:40:08;9.0;;;8.1;;
38220;SDS011;24023;51.280;7.148;2023-06-22T18:45:23;8.5;;;7.6;;
38220;SDS011;24023;51.280;7.148;2023-06-22T18:50:08;8.5;;;7.6;;
38220;SDS011;24023;51.280;7.148;2023-06-22T18:55:07;8.5;;;7.6;;
38220;SDS011;24023;51.280;7.148;2023-06-22T19:00:14;7.6;;;5.9;;
38220;SDS011;24023;51.280;7.148;2023-06-22T19:05:07;7.6;;;5.9;;
38220;SDS011;24023;51.280;7.148;2023-06-22T19:10:20;5.8;;;5.3;;
38220;SDS011;24023;51.280;7.148;2023-06-22T19:15:12;5.8;;;5.3;;
38220;SDS011;24023;51.280;7.148;2023-06-22T19:20:09;6.1;;;5.5;;
38220;SDS011;24023;51.280;7.148;2023-06-22T19:25:06;6.1;;;5.5;;
38220;SDS011;24023;51.280;7.148;2023-06-22T19:30:09;6.1;;;5.5;;
38220;SDS011;24023;51.280;7.148;2023-06-22T19:35:06;6.1;;;5.5;;
38220;SDS011;24023;51.280;7.148;2023-06-22T19:40:09;6.1;;;5.5;;
38220;SDS011;24023;51.280;7.148;2023-06-22T19:45:13;7.2;;;5.7;;
38220;SDS011;24023;51.280;7.148;2023-06-22T19:50:09;7.2;;;5.7;;
38220;SDS011;24023;51.280;7.148;2023-06-22T19:55:07;7.2;;;5.7;;
38220;SDS011;24023;51.280;7.148;2023-06-22T20:00:13;2.8;;;2.3;;
38220;SDS011;24023;51.280;7.148;2023-06-22T20:05:06;2.8;;;2.3;;
38220;SDS011;24023;51.280;7.148;2023-06-22T20:10:10;2.8;;;2.3;;
38220;SDS011;24023;51.280;7.148;2023-06-22T20:15:24;2.1;;;1.8;;
38220;SDS011;24023;51.280;7.148;2023-06-22T20:20:17;2.1;;;1.8;;
38220;SDS011;24023;51.280;7.148;2023-06-22T20:25:07;1.7;;;0.9;;
38220;SDS011;24023;51.280;7.148;2023-06-22T20:30:13;1.7;;;0.9;;
38220;SDS011;24023;51.280;7.148;2023-06-22T20:35:06;1.2;;;0.3;;
38220;SDS011;24023;51.280;7.148;2023-06-22T20:40:07;1.2;;;0.3;;
38220;SDS011;24023;51.280;7.148;2023-06-22T20:45:11;1.2;;;0.3;;
38220;SDS011;24023;51.280;7.148;2023-06-22T20:50:07;0.9;;;0.5;;
38220;SDS011;24023;51.280;7.148;2023-06-22T20:55:06;0.9;;;0.5;;
38220;SDS011;24023;51.280;7.148;2023-06-22T21:00:12;1.0;;;0.5;;
38220;SDS011;24023;51.280;7.148;2023-06-22T21:05:07;1.0;;;0.5;;
38220;SDS011;24023;51.280;7.148;2023-06-22T21:10:08;1.0;;;0.5;;
38220;SDS011;24023;51.280;7.148;2023-06-22T21:15:08;2.3;;;0.6;;
38220;SDS011;24023;51.280;7.148;2023-06-22T21:20:08;2.3;;;0.6;;
38220;SDS011;24023;51.280;7.148;2023-06-22T21:25:07;1.8;;;0.5;;
38220;SDS011;24023;51.280;7.148;2023-06-22T21:30:09;1.8;;;0.5;;
38220;SDS011;24023;51.280;7.148;2023-06-22T21:35:08;1.8;;;0.5;;
38220;SDS011;24023;51.280;7.148;2023-06-22T21:40:08;3.1;;;1.3;;
38220;SDS011;24023;51.280;7.148;2023-06-22T21:45:09;3.1;;;1.3;;
38220;SDS011;24023;51.280;7.148;2023-06-22T21:50:08;2.8;;;2.4;;
38220;SDS011;24023;51.280;7.148;2023-06-22T21:55:07;2.8;;;2.4;;
38220;SDS011;24023;51.280;7.148;2023-06-22T22:00:19;3.1;;;2.8;;
38220;SDS011;24023;51.280;7.148;2023-06-22T22:05:08;3.1;;;2.8;;
38220;SDS011;24023;51.280;7.148;2023-06-22T22:10:09;3.1;;;2.8;;
38220;SDS011;24023;51.280;7.148;2023-06-22T22:15:07;3.3;;;3.0;;
38220;SDS011;24023;51.280;7.148;2023-06-22T22:20:09;3.3;;;3.0;;
38220;SDS011;24023;51.280;7.148;2023-06-22T22:25:07;3.4;;;3.1;;
38220;SDS011;24023;51.280;7.148;2023-06-22T22:30:10;3.4;;;3.1;;
38220;SDS011;24023;51.280;7.148;2023-06-22T22:35:06;3.4;;;3.1;;
38220;SDS011;24023;51.280;7.148;2023-06-22T22:40:10;4.1;;;3.7;;
38220;SDS011;24023;51.280;7.148;2023-06-22T22:45:10;4.1;;;3.7;;
38220;SDS011;24023;51.280;7.148;2023-06-22T22:50:09;3.7;;;3.3;;
38220;SDS011;24023;51.280;7.148;2023-06-22T22:55:07;3.7;;;3.3;;
38220;SDS011;24023;51.280;7.148;2023-06-22T23:00:13;3.7;;;3.3;;
38220;SDS011;24023;51.280;7.148;2023-06-22T23:05:07;3.7;;;3.3;;
38220;SDS011;24023;51.280;7.148;2023-06-22T23:10:08;3.7;;;3.3;;
38220;SDS011;24023;51.280;7.148;2023-06-22T23:15:07;3.7;;;3.2;;
38220;SDS011;24023;51.280;7.148;2023-06-22T23:20:10;3.7;;;3.2;;
38220;SDS011;24023;51.280;7.148;2023-06-22T23:25:08;3.7;;;3.2;;
38220;SDS011;24023;51.280;7.148;2023-06-22T23:30:09;3.8;;;3.4;;
38220;SDS011;24023;51.280;7.148;2023-06-22T23:35:10;3.8;;;3.4;;
38220;SDS011;24023;51.280;7.148;2023-06-22T23:40:12;3.3;;;3.0;;
38220;SDS011;24023;51.280;7.148;2023-06-22T23:45:09;3.3;;;3.0;;
38220;SDS011;24023;51.280;7.148;2023-06-22T23:50:09;3.2;;;2.9;;
38220;SDS011;24023;51.280;7.148;2023-06-22T23:55:07;3.2;;;2.9;;
